Time;durP1;ratioP1;P1;durP2;ratioP2;P2;SDS_P1;SDS_P2;PMS_P1;PMS_P2;Temp;Humidity;BMP_temperature;BMP_pressure;BME280_temperature;BME280_humidity;BME280_pressure;Samples;Min_cycle;Max_cycle;Signal;HPM_P1;HPM_P2
2022/05/10 00:00:39;;;;;;;2.70;1.50;;;;;;;8.42;43.43;100429.44;109434;1273;22467;-58
2022/05/10 00:03:07;;;;;;;1.40;1.10;;;;;;;8.21;44.41;100424.02;109336;1274;137232;-58
2022/05/10 00:05:38;;;;;;;2.80;1.40;;;;;;;8.05;45.09;100426.39;109355;1274;22850;-58
2022/05/10 00:08:10;;;;;;;3.10;1.80;;;;;;;7.88;45.30;100423.83;109258;1274;138479;-58
2022/05/10 00:10:37;;;;;;;2.20;1.20;;;;;;;7.72;46.11;100424.35;109499;1273;23340;-58
2022/05/10 00:13:04;;;;;;;2.20;1.40;;;;;;;7.57;46.31;100422.39;109461;1274;22444;-58
2022/05/10 00:15:31;;;;;;;1.30;1.20;;;;;;;7.41;47.01;100421.70;109327;1273;139052;-58
2022/05/10 00:18:00;;;;;;;3.20;1.10;;;;;;;7.30;47.02;100423.84;109355;1274;22240;-58
2022/05/10 00:20:26;;;;;;;2.10;1.60;;;;;;;7.19;47.40;100421.87;109290;1274;137554;-58
2022/05/10 00:22:53;;;;;;;2.20;1.30;;;;;;;7.06;48.37;100423.34;109440;1274;22496;-58
2022/05/10 00:25:25;;;;;;;1.90;1.30;;;;;;;6.93;48.75;100419.91;109444;1273;22645;-58
2022/05/10 00:27:52;;;;;;;2.30;1.50;;;;;;;6.82;48.76;100418.94;109380;1273;137928;-58
2022/05/10 00:30:19;;;;;;;1.80;1.20;;;;;;;6.70;49.57;100420.03;109473;1273;23488;-58
2022/05/10 00:32:46;;;;;;;3.50;1.40;;;;;;;6.58;49.77;100419.10;109351;1274;138774;-57
2022/05/10 00:35:34;;;;;;;4.80;1.70;;;;;;;6.47;49.83;100414.20;109432;1273;22547;-58
2022/05/10 00:38:02;;;;;;;3.60;1.40;;;;;;;6.38;50.33;100416.48;109265;1271;137453;-58
2022/05/10 00:40:33;;;;;;;1.90;1.40;;;;;;;6.28;50.35;100418.70;109337;1274;22552;-58
2022/05/10 00:43:22;;;;;;;3.20;1.40;;;;;;;6.19;50.71;100418.00;109433;1274;22395;-58
2022/05/10 00:46:08;;;;;;;3.30;1.50;;;;;;;6.11;51.09;100418.84;109214;1274;139162;-58
2022/05/10 00:48:50;;;;;;;3.60;1.10;;;;;;;6.04;51.19;100415.11;109240;1274;22392;-58
2022/05/10 00:51:39;;;;;;;2.70;1.50;;;;;;;6.00;51.08;100422.64;109285;1274;137400;-57
2022/05/10 00:54:39;;;;;;;3.40;1.70;;;;;;;5.92;51.58;100422.40;109425;1274;23240;-58
2022/05/10 00:57:28;;;;;;;2.00;1.40;;;;;;;5.84;52.30;100422.37;109231;1274;137075;-58
2022/05/10 00:59:55;;;;;;;3.90;1.20;;;;;;;5.80;52.54;100424.97;109339;1274;22539;-58
2022/05/10 01:02:42;;;;;;;2.20;1.30;;;;;;;5.74;52.85;100424.81;109343;1273;137068;-58
2022/05/10 01:05:23;;;;;;;4.60;1.40;;;;;;;5.68;52.65;100423.75;109437;1274;22492;-58
2022/05/10 01:07:54;;;;;;;3.30;1.70;;;;;;;5.64;53.48;100424.89;109401;1273;138027;-58
2022/05/10 01:10:35;;;;;;;2.30;1.30;;;;;;;5.60;53.59;100423.02;109247;1274;22547;-58
2022/05/10 01:13:14;;;;;;;2.70;1.40;;;;;;;5.56;53.80;100425.63;109222;1274;23700;-58
2022/05/10 01:16:14;;;;;;;1.50;1.20;;;;;;;5.53;53.81;100428.77;109207;1274;138166;-58
2022/05/10 01:18:41;;;;;;;1.80;1.30;;;;;;;5.49;54.28;100428.00;109199;1274;22584;-58
2022/05/10 01:21:12;;;;;;;6.00;1.70;;;;;;;5.45;54.52;100426.97;109317;1274;137904;-58
2022/05/10 01:23:57;;;;;;;3.10;1.50;;;;;;;5.41;54.42;100428.31;109283;1274;22940;-58
2022/05/10 01:26:33;;;;;;;5.20;1.60;;;;;;;5.40;54.80;100431.59;109334;1273;137405;-58
2022/05/10 01:29:06;;;;;;;3.70;1.10;;;;;;;5.36;54.77;100432.23;109461;1273;22493;-58
2022/05/10 01:31:35;;;;;;;1.60;1.40;;;;;;;5.33;54.71;100434.20;109150;1274;138306;-58
2022/05/10 01:34:09;;;;;;;2.30;1.50;;;;;;;5.29;54.91;100431.81;109236;1274;22471;-58
2022/05/10 01:36:42;;;;;;;3.80;1.50;;;;;;;5.26;54.94;100427.22;109341;1274;22420;-58
2022/05/10 01:39:27;;;;;;;1.70;1.20;;;;;;;5.24;54.83;100425.13;109260;1274;137183;-58
2022/05/10 01:42:02;;;;;;;2.30;1.40;;;;;;;5.24;55.09;100425.91;109411;1274;22445;-58
2022/05/10 01:44:41;;;;;;;3.00;1.60;;;;;;;5.24;55.76;100421.26;109364;1274;138029;-58
2022/05/10 01:47:27;;;;;;;3.30;1.70;;;;;;;5.22;55.48;100421.41;109438;1274;23641;-58
2022/05/10 01:49:54;;;;;;;4.80;1.50;;;;;;;5.20;55.65;100421.48;109221;1274;138273;-60
2022/05/10 01:52:31;;;;;;;4.00;1.50;;;;;;;5.17;56.31;100416.00;109443;1274;22907;-58
2022/05/10 01:55:21;;;;;;;4.10;1.80;;;;;;;5.12;56.31;100412.20;109295;1273;23298;-58
2022/05/10 01:57:48;;;;;;;3.60;1.90;;;;;;;5.09;56.65;100413.33;109370;1274;138669;-58
2022/05/10 02:00:22;;;;;;;3.10;1.70;;;;;;;5.04;56.44;100412.77;109496;1272;22406;-58
2022/05/10 02:02:52;;;;;;;3.00;1.70;;;;;;;4.99;56.53;100412.30;109386;1272;137408;-58
2022/05/10 02:05:23;;;;;;;4.40;1.80;;;;;;;4.96;56.53;100411.02;109354;1274;23652;-58
2022/05/10 02:07:51;;;;;;;3.50;2.20;;;;;;;4.91;56.86;100412.92;109156;1274;137577;-58
2022/05/10 02:10:22;;;;;;;4.50;1.70;;;;;;;4.86;57.06;100412.85;109487;1274;22418;-58
2022/05/10 02:12:55;;;;;;;4.70;2.50;;;;;;;4.81;57.22;100416.05;109489;1273;22489;-58
2022/05/10 02:15:27;;;;;;;3.00;1.60;;;;;;;4.76;57.62;100414.91;109129;1274;138255;-58
2022/05/10 02:17:57;;;;;;;3.10;1.90;;;;;;;4.72;57.70;100421.73;109496;1274;22511;-58
2022/05/10 02:20:29;;;;;;;2.20;1.60;;;;;;;4.67;57.81;100423.81;109383;1272;137844;-58
2022/05/10 02:23:09;;;;;;;4.10;2.40;;;;;;;4.63;58.02;100422.29;109446;1272;22414;-58
2022/05/10 02:25:40;;;;;;;7.90;2.60;;;;;;;4.60;58.13;100423.45;109284;1274;140150;-58
2022/05/10 02:28:29;;;;;;;5.10;2.70;;;;;;;4.58;58.50;100422.52;109478;1274;22460;-58
2022/05/10 02:30:58;;;;;;;8.00;3.10;;;;;;;4.56;58.79;100422.17;109478;1273;22603;-58
2022/05/10 02:33:25;;;;;;;6.20;3.20;;;;;;;4.55;59.07;100425.77;109257;1274;138956;-58
2022/05/10 02:35:55;;;;;;;;;;;;;;;4.54;59.32;100423.98;109311;1274;22475;-58
2022/05/10 02:38:28;;;;;;;7.90;3.90;;;;;;;4.55;59.58;100424.11;109409;1273;126061;-57
2022/05/10 02:40:55;;;;;;;10.30;4.20;;;;;;;4.57;59.46;100427.33;109341;1273;23487;-58
2022/05/10 02:43:32;;;;;;;12.70;5.20;;;;;;;4.62;59.67;100428.23;109357;1273;22447;-59
2022/05/10 02:45:59;;;;;;;11.00;5.60;;;;;;;4.69;59.74;100427.86;109388;1273;138668;-59
2022/05/10 02:48:35;;;;;;;;;;;;;;;4.76;59.79;100428.41;109508;1273;22585;-58
2022/05/10 02:51:03;;;;;;;13.70;5.80;;;;;;;4.83;59.89;100426.75;109392;1273;124004;-58
2022/05/10 02:53:29;;;;;;;13.90;5.70;;;;;;;4.90;59.81;100426.61;109499;1273;22454;-58
2022/05/10 02:56:04;;;;;;;12.60;5.60;;;;;;;4.95;60.16;100424.07;109375;1274;138041;-58
2022/05/10 02:58:43;;;;;;;13.60;6.30;;;;;;;4.99;60.31;100426.43;109443;1273;22453;-58
2022/05/10 03:01:30;;;;;;;12.30;5.60;;;;;;;5.01;60.74;100424.94;109382;1274;22471;-58
2022/05/10 03:03:57;;;;;;;16.20;6.20;;;;;;;5.05;60.77;100426.08;109043;1274;139811;-58
2022/05/10 03:06:25;;;;;;;16.70;6.30;;;;;;;5.06;60.71;100424.45;107258;1273;22582;-57
2022/05/10 03:08:56;;;;;;;16.90;7.10;;;;;;;5.08;60.50;100422.43;109304;1273;137361;-58
2022/05/10 03:11:23;;;;;;;18.00;7.30;;;;;;;5.11;60.37;100423.98;109509;1272;23120;-58
2022/05/10 03:13:50;;;;;;;15.90;7.60;;;;;;;5.15;60.60;100419.66;109331;1274;138547;-58
2022/05/10 03:16:21;;;;;;;14.00;7.20;;;;;;;5.22;60.44;100423.79;109445;1273;22709;-57
2022/05/10 03:18:48;;;;;;;14.90;7.40;;;;;;;5.30;60.86;100423.80;109457;1273;23232;-58
2022/05/10 03:21:15;;;;;;;20.90;6.80;;;;;;;5.39;60.77;100420.90;109360;1274;138932;-58
2022/05/10 03:23:44;;;;;;;17.00;7.60;;;;;;;5.47;60.92;100424.64;109460;1273;23869;-58
2022/05/10 03:26:11;;;;;;;14.80;7.30;;;;;;;5.56;60.59;100424.05;109341;1274;138412;-58
2022/05/10 03:28:38;;;;;;;17.50;7.30;;;;;;;5.62;60.60;100419.86;109455;1273;22442;-58
2022/05/10 03:31:05;;;;;;;19.50;7.90;;;;;;;5.73;60.70;100423.73;109465;1274;23339;-58
2022/05/10 03:33:32;;;;;;;20.80;7.60;;;;;;;5.83;60.90;100422.15;109280;1274;137710;-58
2022/05/10 03:35:58;;;;;;;17.80;8.70;;;;;;;5.93;60.83;100426.03;109500;1273;22470;-58
2022/05/10 03:38:25;;;;;;;16.20;7.70;;;;;;;6.04;60.89;100421.52;109351;1273;138116;-58
2022/05/10 03:40:52;;;;;;;15.40;8.30;;;;;;;6.15;60.68;100426.39;109424;1274;22486;-58
2022/05/10 03:43:18;;;;;;;;;;;;;;;6.26;60.28;100426.10;109513;1273;22536;-58
2022/05/10 03:45:45;;;;;;;18.20;7.50;;;;;;;6.36;60.10;100428.36;109305;1272;124610;-58
2022/05/10 03:48:12;;;;;;;;;;;;;;;6.47;59.86;100427.08;109487;1273;22490;-58
2022/05/10 03:50:38;;;;;;;17.70;7.30;;;;;;;6.57;59.35;100425.77;109354;1273;125010;-58
2022/05/10 03:53:06;;;;;;;19.90;8.90;;;;;;;6.67;59.21;100424.71;109493;1273;22455;-58
2022/05/10 03:55:32;;;;;;;18.30;8.80;;;;;;;6.77;59.49;100418.73;109353;1274;22529;-58
2022/05/10 03:57:59;;;;;;;19.60;9.00;;;;;;;6.90;58.81;100426.52;109336;1273;141135;-58
2022/05/10 04:00:26;;;;;;;;;;;;;;;7.01;58.83;100429.06;109500;1274;24075;-58
2022/05/10 04:02:55;;;;;;;22.90;10.10;;;;;;;7.14;58.61;100428.81;109353;1273;123609;-58
2022/05/10 04:05:23;;;;;;;17.10;9.70;;;;;;;7.25;57.99;100431.11;108992;1274;22560;-58
2022/05/10 04:07:50;;;;;;;20.30;10.20;;;;;;;7.37;57.42;100429.55;109226;1274;138601;-58
2022/05/10 04:10:18;;;;;;;25.00;12.00;;;;;;;7.50;57.28;100431.39;109472;1273;22439;-58
2022/05/10 04:12:44;;;;;;;23.30;11.60;;;;;;;7.62;56.71;100429.58;109465;1272;22574;-58
2022/05/10 04:15:13;;;;;;;19.90;10.40;;;;;;;7.73;56.17;100429.89;109337;1274;138585;-58
2022/05/10 04:17:39;;;;;;;25.70;11.00;;;;;;;7.85;56.00;100428.64;109433;1273;22466;-58
2022/05/10 04:20:07;;;;;;;20.20;10.40;;;;;;;7.96;55.95;100432.75;109347;1274;138505;-58
2022/05/10 04:22:34;;;;;;;22.20;10.30;;;;;;;8.07;56.04;100430.52;109490;1273;22386;-58
2022/05/10 04:25:12;;;;;;;26.80;11.40;;;;;;;8.20;56.08;100431.21;109440;1272;22449;-58
2022/05/10 04:27:39;;;;;;;;;;;;;;;8.32;55.55;100432.48;109409;1272;137699;-58
2022/05/10 04:30:06;;;;;;;20.50;10.10;;;;;;;8.46;55.66;100432.83;109445;1274;22424;-58
2022/05/10 04:32:36;;;;;;;20.50;10.60;;;;;;;8.58;55.10;100430.89;109350;1272;137579;-58
2022/05/10 04:35:03;;;;;;;22.40;9.90;;;;;;;8.70;54.95;100431.69;109471;1273;22589;-58
2022/05/10 04:37:30;;;;;;;15.40;7.80;;;;;;;8.82;55.02;100425.60;109502;1271;22398;-58
2022/05/10 04:42:44;;;;;;;13.00;7.40;;;;;;;9.07;54.52;100424.75;109465;1273;22658;-58
2022/05/10 04:45:14;;;;;;;17.60;7.40;;;;;;;9.19;54.15;100420.97;109387;1274;139105;-58
2022/05/10 04:47:40;;;;;;;13.70;7.70;;;;;;;9.33;53.37;100418.55;109495;1273;22462;-58
2022/05/10 04:50:07;;;;;;;15.60;7.40;;;;;;;9.49;53.13;100414.83;109353;1273;137687;-58
2022/05/10 04:52:34;;;;;;;12.40;6.60;;;;;;;9.72;52.64;100415.90;109504;1273;22879;-58
2022/05/10 04:55:01;;;;;;;10.10;4.90;;;;;;;10.04;50.89;100409.63;109479;1273;22412;-58
2022/05/10 04:57:29;;;;;;;8.80;5.20;;;;;;;10.43;49.45;100409.98;109259;1274;138431;-59
2022/05/10 04:59:56;;;;;;;13.80;5.50;;;;;;;10.83;48.59;100408.73;109478;1274;22452;-59
2022/05/10 05:02:22;;;;;;;14.10;5.80;;;;;;;11.20;47.38;100407.01;109353;1274;138028;-59
2022/05/10 05:04:49;;;;;;;13.60;6.30;;;;;;;11.59;46.89;100401.15;109428;1273;23066;-58
2022/05/10 05:07:16;;;;;;;10.90;6.10;;;;;;;11.99;46.22;100404.06;109462;1273;22437;-59
2022/05/10 05:09:43;;;;;;;14.20;6.50;;;;;;;12.34;45.27;100404.78;109319;1274;138280;-59
2022/05/10 05:12:10;;;;;;;;;;;;;;;12.62;43.81;100404.70;109504;1273;22456;-59
2022/05/10 05:14:38;;;;;;;12.40;6.70;;;;;;;12.89;42.40;100401.69;109384;1274;125525;-59
2022/05/10 05:17:04;;;;;;;;;;;;;;;13.05;41.82;100401.33;109467;1274;22574;-59
2022/05/10 05:19:31;;;;;;;10.10;6.50;;;;;;;13.28;40.53;100407.79;109437;1273;22449;-59
2022/05/10 05:21:58;;;;;;;11.60;5.00;;;;;;;13.56;40.47;100402.48;109375;1274;139300;-59
2022/05/10 05:24:28;;;;;;;15.40;5.90;;;;;;;13.88;39.15;100397.91;109416;1274;22525;-59
2022/05/10 05:26:55;;;;;;;10.20;6.30;;;;;;;14.17;38.45;100398.80;109360;1274;139135;-59
2022/05/10 05:29:24;;;;;;;18.00;5.70;;;;;;;14.47;37.95;100393.48;109491;1274;22436;-59
2022/05/10 05:32:11;;;;;;;14.00;5.50;;;;;;;14.85;37.32;100389.10;109405;1273;138683;-59
2022/05/10 05:34:39;;;;;;;12.70;5.90;;;;;;;15.16;36.30;100387.30;109441;1273;22418;-59
2022/05/10 05:39:53;;;;;;;10.80;6.40;;;;;;;15.44;34.00;100380.11;109338;1272;137867;-58
2022/05/10 05:42:20;;;;;;;18.30;6.90;;;;;;;15.48;34.24;100380.34;109487;1272;22462;-57
2022/05/10 05:44:46;;;;;;;13.40;7.10;;;;;;;15.57;34.26;100378.10;109331;1274;139465;-57
2022/05/10 05:47:13;;;;;;;13.50;6.30;;;;;;;15.69;34.01;100376.82;109479;1273;22558;-57
2022/05/10 05:49:40;;;;;;;11.20;5.70;;;;;;;15.77;33.71;100379.03;109311;1274;137862;-58
2022/05/10 05:52:06;;;;;;;10.30;6.00;;;;;;;15.86;33.28;100375.21;109464;1274;23723;-58
2022/05/10 05:54:33;;;;;;;14.90;5.90;;;;;;;15.90;32.66;100378.40;109497;1273;22440;-58
2022/05/10 05:57:00;;;;;;;10.00;5.40;;;;;;;15.80;32.28;100377.52;109355;1274;137698;-57
2022/05/10 05:59:28;;;;;;;16.40;6.60;;;;;;;15.69;31.95;100375.29;109521;1273;22422;-57
2022/05/10 06:01:55;;;;;;;11.10;6.20;;;;;;;15.52;32.24;100370.55;109305;1272;137829;-57
2022/05/10 06:04:21;;;;;;;15.40;6.10;;;;;;;15.39;32.29;100374.23;109421;1273;22545;-57
2022/05/10 06:06:49;;;;;;;11.20;5.80;;;;;;;15.29;32.19;100375.61;109507;1272;22436;-57
2022/05/10 06:09:20;;;;;;;13.80;5.60;;;;;;;15.09;31.73;100374.98;109283;1274;137955;-57
2022/05/10 06:11:47;;;;;;;10.30;4.50;;;;;;;14.79;31.61;100378.36;109454;1274;23236;-57
2022/05/10 06:14:14;;;;;;;11.80;4.70;;;;;;;14.51;31.73;100377.89;109283;1274;138118;-57
2022/05/10 06:16:43;;;;;;;10.30;6.00;;;;;;;14.35;31.99;100378.62;106618;1274;24265;-57
2022/05/10 06:19:10;;;;;;;14.10;6.40;;;;;;;14.23;32.21;100372.49;104973;1274;22577;-57
2022/05/10 06:21:43;;;;;;;8.90;5.30;;;;;;;14.07;32.60;100370.83;104939;1274;137855;-59
2022/05/10 06:24:12;;;;;;;9.30;4.30;;;;;;;13.96;32.25;100375.21;109296;1274;22668;-57
2022/05/10 06:26:39;;;;;;;14.80;5.70;;;;;;;13.83;32.20;100372.11;109357;1272;137921;-58
2022/05/10 06:29:06;;;;;;;11.80;5.60;;;;;;;13.68;32.04;100377.15;109472;1273;22429;-58
2022/05/10 06:31:33;;;;;;;8.50;4.50;;;;;;;13.52;32.15;100372.71;109469;1273;22491;-58
2022/05/10 06:34:00;;;;;;;8.20;4.90;;;;;;;13.45;32.38;100374.98;109318;1274;138397;-57
2022/05/10 06:36:27;;;;;;;10.00;5.40;;;;;;;13.44;32.71;100372.98;109484;1274;22439;-57
2022/05/10 06:38:54;;;;;;;12.50;6.70;;;;;;;13.43;32.97;100371.11;109263;1274;138689;-57
2022/05/10 06:41:21;;;;;;;11.60;5.90;;;;;;;13.42;33.00;100369.36;109430;1274;22970;-57
2022/05/10 06:43:49;;;;;;;12.50;5.90;;;;;;;13.41;32.79;100372.65;109406;1274;137966;-57
2022/05/10 06:46:20;;;;;;;9.90;6.30;;;;;;;13.39;32.71;100367.21;109414;1273;22562;-58
2022/05/10 06:48:47;;;;;;;17.50;6.70;;;;;;;13.41;33.44;100363.55;109255;1274;23253;-58
2022/05/10 06:51:15;;;;;;;;;;;;;;;13.46;32.77;100359.66;109382;1273;137841;-57
2022/05/10 06:53:43;;;;;;;14.20;6.00;;;;;;;13.47;32.50;100358.63;109454;1274;22548;-58
2022/05/10 06:56:09;;;;;;;14.80;7.10;;;;;;;13.46;32.12;100359.55;109345;1274;139473;-58
2022/05/10 06:58:36;;;;;;;14.70;7.40;;;;;;;13.43;32.14;100363.06;109214;1274;270914;-58
2022/05/10 07:01:54;;;;;;;17.10;7.40;;;;;;;13.43;31.51;100360.02;101708;1311;545802;-58
2022/05/10 07:04:23;;;;;;;25.10;9.10;;;;;;;13.35;31.59;100356.80;108034;1289;23216;-59
2022/05/10 07:06:51;;;;;;;23.80;11.10;;;;;;;13.30;32.51;100355.08;108082;1286;23306;-59
2022/05/10 07:09:20;;;;;;;26.60;10.40;;;;;;;13.31;32.75;100356.03;107863;1289;138104;-59
2022/05/10 07:11:48;;;;;;;17.50;8.90;;;;;;;13.34;33.06;100345.13;107892;1290;23559;-59
2022/05/10 07:14:16;;;;;;;18.30;9.40;;;;;;;13.40;32.72;100350.58;107812;1290;137782;-59
2022/05/10 07:16:44;;;;;;;20.20;8.50;;;;;;;13.40;31.90;100345.48;104639;1287;911200;-58
2022/05/10 07:19:12;;;;;;;17.70;7.80;;;;;;;13.33;31.91;100337.79;108110;1287;23797;-58
2022/05/10 07:21:40;;;;;;;17.50;6.80;;;;;;;13.35;32.14;100339.99;108092;1286;137376;-58
2022/05/10 07:24:09;;;;;;;19.80;8.70;;;;;;;13.38;31.52;100337.69;108254;1287;22490;-59
2022/05/10 07:26:40;;;;;;;22.50;9.70;;;;;;;13.41;32.28;100336.58;108063;1286;138207;-59
2022/05/10 07:29:10;;;;;;;24.20;9.60;;;;;;;13.46;31.80;100337.21;108037;1287;22565;-59
2022/05/10 07:31:38;;;;;;;20.20;8.70;;;;;;;13.45;31.55;100334.25;108091;1287;23418;-59
2022/05/10 07:34:06;;;;;;;18.80;7.70;;;;;;;13.40;32.02;100328.48;108839;1280;137352;-58
2022/05/10 07:36:35;;;;;;;15.20;7.60;;;;;;;13.38;31.74;100323.52;108800;1279;22455;-58
2022/05/10 07:39:10;;;;;;;18.60;8.20;;;;;;;13.38;31.84;100320.06;108852;1280;138360;-59
2022/05/10 07:41:39;;;;;;;16.50;7.50;;;;;;;13.41;32.42;100319.81;108904;1279;23579;-59
2022/05/10 07:44:07;;;;;;;13.00;6.50;;;;;;;13.48;33.12;100322.67;108864;1280;138527;-59
2022/05/10 07:46:35;;;;;;;12.20;5.90;;;;;;;13.58;32.30;100322.27;108894;1281;22402;-58
2022/05/10 07:49:04;;;;;;;10.60;5.50;;;;;;;13.65;32.05;100318.53;108896;1281;22452;-59
2022/05/10 07:51:32;;;;;;;9.80;5.30;;;;;;;13.67;31.31;100318.38;108563;1281;137990;-58
2022/05/10 07:54:00;;;;;;;12.70;4.90;;;;;;;13.67;31.51;100313.46;108868;1281;23282;-59
2022/05/10 07:56:29;;;;;;;11.70;4.40;;;;;;;13.65;31.07;100312.79;108741;1280;138252;-58
2022/05/10 07:58:57;;;;;;;9.90;4.80;;;;;;;13.65;31.53;100302.86;108693;1281;22268;-57
2022/05/10 08:01:26;;;;;;;8.30;4.10;;;;;;;13.67;31.47;100295.44;108709;1281;22485;-57
2022/05/10 08:03:55;;;;;;;13.40;7.10;;;;;;;13.74;31.41;100297.14;108609;1281;137528;-57
2022/05/10 08:06:23;;;;;;;10.30;5.50;;;;;;;13.78;30.98;100301.90;108766;1281;22429;-57
2022/05/10 08:08:53;;;;;;;12.70;5.80;;;;;;;13.75;30.93;100295.95;108614;1281;138300;-58
2022/05/10 08:11:22;;;;;;;13.20;6.00;;;;;;;13.74;31.55;100293.41;108730;1281;22482;-58
2022/05/10 08:13:50;;;;;;;8.90;5.70;;;;;;;13.76;31.18;100289.38;108586;1281;139485;-58
2022/05/10 08:16:19;;;;;;;15.00;6.40;;;;;;;13.79;31.62;100288.70;106825;1281;22765;-57
2022/05/10 08:18:49;;;;;;;14.30;6.90;;;;;;;13.83;31.10;100289.89;108880;1280;22579;-58
2022/05/10 08:21:17;;;;;;;12.00;6.90;;;;;;;13.84;30.96;100282.07;108813;1280;137631;-58
2022/05/10 08:23:47;;;;;;;18.20;7.50;;;;;;;13.85;31.23;100279.44;108943;1280;23264;-58
2022/05/10 08:26:16;;;;;;;14.70;6.90;;;;;;;13.89;31.45;100279.08;108804;1280;137875;-58
2022/05/10 08:28:45;;;;;;;14.70;7.60;;;;;;;13.94;31.34;100276.17;108891;1281;22427;-58
2022/05/10 08:31:13;;;;;;;17.40;7.20;;;;;;;14.01;31.32;100278.25;108881;1281;22586;-58
2022/05/10 08:33:43;;;;;;;21.80;8.60;;;;;;;14.05;30.54;100277.52;108781;1281;142207;-57
2022/05/10 08:36:11;;;;;;;16.60;6.70;;;;;;;14.00;30.83;100271.18;108928;1280;22516;-57
2022/05/10 08:38:41;;;;;;;12.70;6.00;;;;;;;13.93;31.25;100277.64;108694;1281;138392;-57
2022/05/10 08:41:09;;;;;;;12.40;5.80;;;;;;;13.89;31.25;100272.56;108746;1281;23647;-60
2022/05/10 08:43:46;;;;;;;12.50;6.50;;;;;;;13.89;31.07;100268.95;108726;1281;22577;-57
2022/05/10 08:46:16;;;;;;;15.20;7.70;;;;;;;13.89;31.61;100269.70;106852;1281;137091;-57
2022/05/10 08:48:46;;;;;;;17.60;8.40;;;;;;;13.94;30.48;100268.89;108886;1281;22318;-57
2022/05/10 08:51:15;;;;;;;16.70;7.90;;;;;;;13.98;30.46;100269.30;108658;1280;138293;-57
2022/05/10 08:53:44;;;;;;;12.90;7.20;;;;;;;14.01;31.00;100256.55;108892;1281;23399;-57
2022/05/10 08:56:23;;;;;;;5.40;2.90;;;;;;;14.07;30.46;100260.44;108786;1280;137433;-58
2022/05/10 08:59:11;;;;;;;4.50;2.70;;;;;;;14.11;29.66;100247.21;108715;1280;22504;-58
2022/05/10 09:01:48;;;;;;;6.50;3.10;;;;;;;14.13;30.30;100245.69;108897;1280;22412;-57
2022/05/10 09:04:56;;;;;;;4.60;2.50;;;;;;;14.15;29.79;100242.23;108552;1281;138417;-58
2022/05/10 09:07:25;;;;;;;3.30;2.00;;;;;;;14.16;30.07;100231.94;108817;1279;22517;-58
2022/05/10 09:10:02;;;;;;;5.20;2.10;;;;;;;14.24;29.66;100232.98;108784;1280;138069;-58
2022/05/10 09:12:58;;;;;;;3.80;1.80;;;;;;;14.27;29.37;100235.14;108937;1280;22460;-58
2022/05/10 09:15:29;;;;;;;2.80;1.50;;;;;;;14.24;29.56;100230.96;108734;1280;138488;-57
2022/05/10 09:18:09;;;;;;;4.90;1.90;;;;;;;14.29;29.92;100226.27;108747;1280;22266;-58
2022/05/10 09:20:38;;;;;;;3.60;2.20;;;;;;;14.35;29.65;100224.82;108720;1281;139180;-57
2022/05/10 09:23:22;;;;;;;3.10;1.70;;;;;;;14.37;29.79;100221.77;108678;1281;22618;-57
2022/05/10 09:25:54;;;;;;;6.70;1.70;;;;;;;14.41;30.18;100216.98;108739;1281;22566;-57
2022/05/10 09:28:26;;;;;;;4.20;1.90;;;;;;;14.46;30.32;100216.90;108786;1281;137432;-58
2022/05/10 09:36:29;;;;;;;5.40;2.10;;;;;;;14.59;29.52;100217.99;108771;1280;22508;-58
2022/05/10 09:39:14;;;;;;;2.30;1.60;;;;;;;14.58;29.28;100207.79;108772;1280;137091;-58
2022/05/10 09:41:46;;;;;;;6.30;1.60;;;;;;;14.57;29.96;100203.70;108870;1279;22464;-58
2022/05/10 09:44:22;;;;;;;3.10;1.70;;;;;;;14.59;29.72;100194.96;108869;1279;139183;-58
2022/05/10 09:46:51;;;;;;;2.40;1.60;;;;;;;14.61;29.55;100185.76;108783;1280;22458;-58
2022/05/10 09:49:35;;;;;;;3.30;1.60;;;;;;;14.62;29.59;100180.67;108687;1281;23319;-57
2022/05/10 09:52:03;;;;;;;5.10;2.40;;;;;;;14.63;29.81;100176.49;108793;1280;138316;-57
2022/05/10 09:54:36;;;;;;;5.80;1.70;;;;;;;14.65;29.27;100177.23;108922;1280;22585;-58
2022/05/10 09:57:06;;;;;;;4.10;2.00;;;;;;;14.67;29.25;100182.95;108802;1280;137625;-57
2022/05/10 09:59:45;;;;;;;5.70;2.20;;;;;;;14.71;29.00;100170.23;108538;1281;22485;-58
2022/05/10 10:02:31;;;;;;;3.50;2.10;;;;;;;14.74;28.76;100168.96;108736;1279;137850;-58
2022/05/10 10:04:59;;;;;;;5.20;2.10;;;;;;;14.75;28.61;100162.28;108706;1281;23292;-58
2022/05/10 10:07:28;;;;;;;3.40;2.30;;;;;;;14.79;29.41;100163.66;108740;1281;22574;-57
2022/05/10 10:10:15;;;;;;;6.50;2.20;;;;;;;14.83;29.26;100162.31;108528;1281;138518;-58
2022/05/10 10:12:45;;;;;;;5.40;1.70;;;;;;;14.89;29.37;100162.64;108643;1281;22630;-57
2022/05/10 10:15:37;;;;;;;9.50;2.80;;;;;;;14.96;29.73;100160.75;108592;1280;137852;-57
2022/05/10 10:18:08;;;;;;;7.90;2.60;;;;;;;15.05;29.54;100155.77;108728;1280;22457;-58
2022/05/10 10:20:39;;;;;;;4.00;1.60;;;;;;;15.10;29.09;100153.64;108584;1281;138075;-58
2022/05/10 10:23:22;;;;;;;3.10;1.90;;;;;;;15.10;29.34;100150.89;108691;1281;22449;-58
2022/05/10 10:25:50;;;;;;;7.70;2.30;;;;;;;15.10;29.42;100149.25;108737;1281;22536;-58
2022/05/10 10:28:29;;;;;;;5.40;2.70;;;;;;;15.11;29.17;100145.19;108549;1281;138462;-58
2022/05/10 10:31:04;;;;;;;9.00;2.80;;;;;;;15.11;28.71;100150.79;108801;1281;22476;-57
2022/05/10 10:33:51;;;;;;;8.50;2.80;;;;;;;15.13;28.53;100141.69;108478;1283;138055;-58
2022/05/10 10:36:43;;;;;;;4.60;2.10;;;;;;;15.13;28.84;100141.63;108846;1281;23462;-58
2022/05/10 10:39:18;;;;;;;11.20;3.10;;;;;;;15.18;28.49;100138.10;108450;1283;137595;-58
2022/05/10 10:41:47;;;;;;;8.50;2.70;;;;;;;15.18;28.55;100136.13;108580;1281;22454;-58
2022/05/10 10:44:26;;;;;;;6.80;2.70;;;;;;;15.18;29.07;100129.43;108492;1283;137539;-58
2022/05/10 10:47:29;;;;;;;5.90;2.80;;;;;;;15.20;28.92;100126.69;108533;1283;22453;-58
2022/05/10 10:50:10;;;;;;;6.80;2.60;;;;;;;15.20;29.20;100129.77;107966;1287;22290;-57
2022/05/10 10:52:38;;;;;;;3.70;1.90;;;;;;;15.23;28.95;100124.06;108118;1286;137511;-58
2022/05/10 10:55:07;;;;;;;4.10;2.20;;;;;;;15.27;28.99;100117.54;108231;1287;22475;-58
2022/05/10 10:57:54;;;;;;;4.90;2.50;;;;;;;15.33;28.70;100104.77;107915;1287;137304;-57
2022/05/10 11:00:37;;;;;;;4.00;2.30;;;;;;;15.39;28.90;100102.32;108213;1287;22513;-57
2022/05/10 11:03:26;;;;;;;5.70;2.30;;;;;;;15.45;29.02;100098.08;108306;1281;139008;-58
2022/05/10 11:05:57;;;;;;;6.30;3.30;;;;;;;15.51;28.47;100095.00;108460;1284;22553;-58
2022/05/10 11:08:34;;;;;;;7.60;3.40;;;;;;;15.54;28.12;100096.77;108376;1284;138784;-58
2022/05/10 11:11:35;;;;;;;9.60;2.80;;;;;;;15.54;28.48;100094.46;108123;1286;23714;-58
2022/05/10 11:14:38;;;;;;;6.90;2.80;;;;;;;15.55;28.26;100084.81;108393;1284;23762;-58
2022/05/10 11:17:15;;;;;;;7.80;3.20;;;;;;;15.57;28.34;100081.85;108304;1284;23636;-58
2022/05/10 11:19:58;;;;;;;8.70;3.20;;;;;;;15.58;27.99;100079.65;108416;1284;22462;-57
2022/05/10 11:22:39;;;;;;;8.20;2.90;;;;;;;15.60;27.82;100074.40;108002;1287;137624;-58
2022/05/10 11:25:34;;;;;;;6.00;2.90;;;;;;;15.62;28.11;100071.44;108038;1287;22539;-58
2022/05/10 11:28:32;;;;;;;5.60;2.20;;;;;;;15.68;28.97;100059.95;108444;1281;138954;-58
2022/05/10 11:31:11;;;;;;;;;;;;;;;15.76;29.18;100053.84;108383;1283;23778;-58
2022/05/10 11:34:09;;;;;;;7.80;2.40;;;;;;;15.85;28.29;100057.27;108324;1283;125078;-59
2022/05/10 11:36:42;;;;;;;4.90;2.20;;;;;;;15.89;28.73;100051.91;107905;1286;22467;-59
2022/05/10 11:39:13;;;;;;;5.60;2.30;;;;;;;15.93;28.58;100046.58;107834;1287;138963;-57
2022/05/10 11:41:44;;;;;;;4.90;2.70;;;;;;;15.96;28.72;100049.21;107918;1288;22522;-58
2022/05/10 11:44:21;;;;;;;7.90;3.30;;;;;;;15.99;28.34;100044.26;107843;1287;22510;-58
2022/05/10 11:46:55;;;;;;;4.90;2.40;;;;;;;16.01;28.53;100043.15;107822;1287;137695;-58
2022/05/10 11:49:44;;;;;;;8.00;2.60;;;;;;;16.03;28.20;100032.23;107928;1287;22520;-58